Time;durP1;ratioP1;P1;durP2;ratioP2;P2;SDS_P1;SDS_P2;PMS_P1;PMS_P2;Temp;Humidity;BMP_temperature;BMP_pressure;BME280_temperature;BME280_humidity;BME280_pressure;Samples;Min_cycle;Max_cycle;Signal;HPM_P1;HPM_P2
2023/08/24 00:02:28;;;;;;;;;2.00;2.00;;;;;;;;2;230874032;230874032;-73
2023/08/24 00:07:44;;;;;;;;;4.50;4.50;;;;;;;;160242;30;229623611;-73
2023/08/24 00:10:10;;;;;;;;;5.50;5.50;;;;;;;;1171248;30;52085259;-73
2023/08/24 00:12:42;;;;;;;;;3.50;3.50;;;;;;;;298766;30;88832694;-74
2023/08/24 00:20:51;;;;;;;;;;;;;;;;;;153289;30;261080102;-73
2023/08/24 00:29:13;;;;;;;;;4.00;4.00;;;;;;;;2;232421991;232421991;-74
2023/08/24 00:37:09;;;;;;;;;5.00;5.00;;;;;;;;2;251170593;251170593;-73
2023/08/24 00:45:25;;;;;;;;;1.50;1.50;;;;;;;;2;229567272;229567272;-73
2023/08/24 00:53:15;;;;;;;;;3.00;3.00;;;;;;;;2;245773620;245773620;-74
2023/08/24 01:01:26;;;;;;;;;7.50;7.50;;;;;;;;2;230899336;230899336;-74
2023/08/24 01:08:48;;;;;;;;;7.00;7.00;;;;;;;;2;236378024;236378024;-73
2023/08/24 01:16:31;;;;;;;;;5.00;5.00;;;;;;;;2;215101798;215101798;-73
2023/08/24 01:22:39;;;;;;;;;3.50;3.50;;;;;;;;2;226578926;226578926;-73
2023/08/24 01:31:16;;;;;;;;;2.00;2.00;;;;;;;;159554;30;195947152;-73
2023/08/24 01:40:12;;;;;;;;;3.00;3.00;;;;;;;;2;274001451;274001451;-73
2023/08/24 01:48:02;;;;;;;;;7.50;4.50;;;;;;;;2;230064367;230064367;-73
2023/08/24 01:56:55;;;;;;;;;4.00;4.00;;;;;;;;2;275023215;275023215;-73
2023/08/24 02:04:43;;;;;;;;;6.00;6.00;;;;;;;;2;229931960;229931960;-73
2023/08/24 02:13:35;;;;;;;;;6.00;6.00;;;;;;;;2;274700827;274700827;-74
2023/08/24 02:21:23;;;;;;;;;7.00;7.00;;;;;;;;2;230435767;230435767;-74
2023/08/24 02:30:13;;;;;;;;;4.00;4.00;;;;;;;;2;273727584;273727584;-73
2023/08/24 02:38:03;;;;;;;;;4.50;4.50;;;;;;;;2;230766737;230766737;-74
2023/08/24 02:46:51;;;;;;;;;4.00;4.00;;;;;;;;2;272119832;272119832;-73
2023/08/24 02:54:39;;;;;;;;;1.00;1.00;;;;;;;;2;228665720;228665720;-74
2023/08/24 03:03:31;;;;;;;;;4.00;4.00;;;;;;;;2;275397756;275397756;-74
2023/08/24 03:11:22;;;;;;;;;3.00;3.00;;;;;;;;2;231454967;231454967;-73
2023/08/24 03:20:13;;;;;;;;;2.00;2.00;;;;;;;;2;274136737;274136737;-73
2023/08/24 03:28:04;;;;;;;;;6.00;6.00;;;;;;;;2;230847903;230847903;-74
2023/08/24 03:36:54;;;;;;;;;5.00;5.00;;;;;;;;2;274099336;274099336;-73
2023/08/24 03:44:42;;;;;;;;;2.50;2.50;;;;;;;;2;229738888;229738888;-74
2023/08/24 03:53:29;;;;;;;;;3.50;3.50;;;;;;;;2;272138156;272138156;-74
2023/08/24 04:01:16;;;;;;;;;9.00;5.00;;;;;;;;2;229428172;229428172;-73
2023/08/24 04:10:04;;;;;;;;;5.50;5.50;;;;;;;;2;273446526;273446526;-74
2023/08/24 04:17:47;;;;;;;;;5.00;5.00;;;;;;;;2;227398903;227398903;-73
2023/08/24 04:26:31;;;;;;;;;7.50;7.50;;;;;;;;2;271231885;271231885;-74
2023/08/24 04:34:16;;;;;;;;;16.00;16.00;;;;;;;;2;227149785;227149785;-73
2023/08/24 04:43:04;;;;;;;;;4.50;4.50;;;;;;;;2;272997819;272997819;-73
2023/08/24 04:50:50;;;;;;;;;4.00;4.00;;;;;;;;2;228430289;228430289;-73
2023/08/24 04:59:36;;;;;;;;;8.00;8.00;;;;;;;;2;271790396;271790396;-74
2023/08/24 05:07:22;;;;;;;;;11.00;11.00;;;;;;;;2;229182091;229182091;-74
2023/08/24 05:16:06;;;;;;;;;6.00;6.00;;;;;;;;2;270977589;270977589;-74
2023/08/24 05:23:48;;;;;;;;;6.00;6.00;;;;;;;;2;226812562;226812562;-74
2023/08/24 05:32:27;;;;;;;;;3.00;3.00;;;;;;;;2;268755300;268755300;-74
2023/08/24 05:40:05;;;;;;;;;6.00;2.50;;;;;;;;2;225081717;225081717;-74
2023/08/24 05:48:47;;;;;;;;;5.00;5.00;;;;;;;;2;270429332;270429332;-74
2023/08/24 05:56:26;;;;;;;;;4.50;4.50;;;;;;;;2;225718191;225718191;-74
2023/08/24 06:05:01;;;;;;;;;4.50;4.50;;;;;;;;2;265967888;265967888;-74
2023/08/24 06:08:39;;;;;;;;;6.00;6.00;;;;;;;;2;172721386;172721386;-74
2023/08/24 06:17:03;;;;;;;;;7.50;4.50;;;;;;;;2;259927721;259927721;-74
2023/08/24 06:24:47;;;;;;;;;7.00;7.00;;;;;;;;2;226898877;226898877;-74
2023/08/24 06:33:37;;;;;;;;;5.00;5.00;;;;;;;;2;273130755;273130755;-74
2023/08/24 06:41:28;;;;;;;;;2.00;2.00;;;;;;;;2;231573852;231573852;-73
2023/08/24 06:50:21;;;;;;;;;4.50;4.50;;;;;;;;2;274318863;274318863;-74
2023/08/24 07:01:27;;;;;;;;;4.00;4.00;;;;;;;;2;230105160;230105160;-74
2023/08/24 07:10:20;;;;;;;;;4.00;4.00;;;;;;;;2;274990437;274990437;-74
2023/08/24 07:18:09;;;;;;;;;5.50;5.50;;;;;;;;2;230417794;230417794;-73
2023/08/24 07:27:05;;;;;;;;;7.00;7.00;;;;;;;;2;275615362;275615362;-74
2023/08/24 07:34:57;;;;;;;;;4.00;4.00;;;;;;;;2;230738866;230738866;-73
2023/08/24 07:43:49;;;;;;;;;16.50;9.00;;;;;;;;2;274838565;274838565;-73
2023/08/24 07:51:39;;;;;;;;;6.00;6.00;;;;;;;;2;230480886;230480886;-73
2023/08/24 08:00:31;;;;;;;;;4.00;4.00;;;;;;;;2;275107713;275107713;-73
2023/08/24 08:08:20;;;;;;;;;4.00;4.00;;;;;;;;2;229988510;229988510;-74
2023/08/24 08:17:10;;;;;;;;;2.50;2.50;;;;;;;;2;273725843;273725843;-75
2023/08/24 08:24:59;;;;;;;;;9.00;9.00;;;;;;;;2;229624675;229624675;-74
2023/08/24 08:33:53;;;;;;;;;7.00;7.00;;;;;;;;2;275846481;275846481;-75
2023/08/24 08:41:44;;;;;;;;;7.50;7.50;;;;;;;;2;230039952;230039952;-74
2023/08/24 08:50:35;;;;;;;;;9.00;5.00;;;;;;;;2;274680281;274680281;-74
2023/08/24 08:58:25;;;;;;;;;4.00;4.00;;;;;;;;2;228284546;228284546;-73
2023/08/24 09:07:17;;;;;;;;;13.50;4.50;;;;;;;;2;275981572;275981572;-73
2023/08/24 09:15:08;;;;;;;;;10.50;10.50;;;;;;;;2;230739558;230739558;-75
2023/08/24 09:23:58;;;;;;;;;5.50;5.50;;;;;;;;2;273126424;273126424;-76
2023/08/24 09:31:50;;;;;;;;;3.50;3.50;;;;;;;;2;230136867;230136867;-75
2023/08/24 09:40:47;;;;;;;;;3.50;3.50;;;;;;;;2;274513373;274513373;-75
2023/08/24 09:48:37;;;;;;;;;13.00;5.00;;;;;;;;2;231106363;231106363;-76
2023/08/24 09:57:28;;;;;;;;;15.50;7.00;;;;;;;;2;274154835;274154835;-75
2023/08/24 10:05:20;;;;;;;;;14.00;14.00;;;;;;;;2;230354348;230354348;-76
2023/08/24 10:14:12;;;;;;;;;7.50;7.50;;;;;;;;2;273767374;273767374;-75
2023/08/24 10:22:02;;;;;;;;;5.00;5.00;;;;;;;;2;230937581;230937581;-76
2023/08/24 10:30:55;;;;;;;;;12.50;4.00;;;;;;;;2;274290018;274290018;-75
2023/08/24 10:38:45;;;;;;;;;4.00;4.00;;;;;;;;2;230819305;230819305;-76
2023/08/24 10:47:43;;;;;;;;;14.00;5.00;;;;;;;;2;274762500;274762500;-73
2023/08/24 10:55:36;;;;;;;;;8.00;8.00;;;;;;;;2;230291557;230291557;-73
2023/08/24 11:03:03;;;;;;;;;7.50;7.50;;;;;;;;2;274778219;274778219;-73
2023/08/24 11:09:06;;;;;;;;;4.50;4.50;;;;;;;;346043;30;212203428;-73
2023/08/24 11:17:22;;;;;;;;;4.00;4.00;;;;;;;;3;8811037;254758704;-73
2023/08/24 11:25:58;;;;;;;;;3.00;3.00;;;;;;;;2;239977454;239977454;-74
2023/08/24 11:34:08;;;;;;;;;8.50;8.50;;;;;;;;2;258137858;258137858;-74
2023/08/24 11:42:45;;;;;;;;;3.50;3.50;;;;;;;;2;240312047;240312047;-74
2023/08/24 11:50:51;;;;;;;;;2.50;2.50;;;;;;;;2;256505989;256505989;-74
2023/08/24 11:59:26;;;;;;;;;1.50;1.50;;;;;;;;2;239406547;239406547;-74
2023/08/24 12:07:30;;;;;;;;;5.00;5.00;;;;;;;;2;255768629;255768629;-75
2023/08/24 12:16:02;;;;;;;;;3.50;3.50;;;;;;;;2;238823205;238823205;-75
2023/08/24 12:24:08;;;;;;;;;3.00;3.00;;;;;;;;2;254920585;254920585;-74
2023/08/24 12:32:42;;;;;;;;;4.00;4.00;;;;;;;;2;237494816;237494816;-76
2023/08/24 12:40:45;;;;;;;;;14.00;2.50;;;;;;;;2;255495490;255495490;-73
2023/08/24 12:49:15;;;;;;;;;12.50;1.50;;;;;;;;2;237570099;237570099;-75
2023/08/24 12:57:19;;;;;;;;;6.00;6.00;;;;;;;;2;255525319;255525319;-76
2023/08/24 13:05:49;;;;;;;;;3.50;3.50;;;;;;;;2;237165492;237165492;-76
2023/08/24 13:13:54;;;;;;;;;13.00;5.00;;;;;;;;2;255225971;255225971;-75
2023/08/24 13:22:23;;;;;;;;;5.50;5.50;;;;;;;;2;238857780;238857780;-76
2023/08/24 13:30:27;;;;;;;;;14.00;6.50;;;;;;;;2;255079823;255079823;-76
2023/08/24 13:38:58;;;;;;;;;9.50;9.50;;;;;;;;2;237706784;237706784;-76
2023/08/24 13:47:04;;;;;;;;;2.50;2.50;;;;;;;;2;255711493;255711493;-75
2023/08/24 13:55:40;;;;;;;;;2.00;2.00;;;;;;;;2;239641339;239641339;-76
2023/08/24 14:03:47;;;;;;;;;7.00;7.00;;;;;;;;2;256885611;256885611;-75
2023/08/24 14:12:18;;;;;;;;;3.50;3.50;;;;;;;;2;238740833;238740833;-74
2023/08/24 14:20:27;;;;;;;;;4.00;4.00;;;;;;;;2;257583714;257583714;-74
2023/08/24 14:28:59;;;;;;;;;6.50;6.50;;;;;;;;2;238793006;238793006;-74
2023/08/24 14:37:05;;;;;;;;;5.50;5.50;;;;;;;;2;255325502;255325502;-74
2023/08/24 14:45:38;;;;;;;;;7.00;7.00;;;;;;;;2;239002024;239002024;-74
2023/08/24 14:53:45;;;;;;;;;6.50;6.50;;;;;;;;2;256657935;256657935;-74
2023/08/24 15:02:18;;;;;;;;;2.50;2.50;;;;;;;;2;238284856;238284856;-75
2023/08/24 15:10:25;;;;;;;;;11.50;7.50;;;;;;;;2;256048058;256048058;-73
2023/08/24 15:18:59;;;;;;;;;3.00;3.00;;;;;;;;2;239645252;239645252;-74
2023/08/24 15:27:05;;;;;;;;;4.50;4.50;;;;;;;;2;256469818;256469818;-75
2023/08/24 15:35:39;;;;;;;;;2.50;2.50;;;;;;;;2;238825680;238825680;-73
2023/08/24 15:43:46;;;;;;;;;2.50;2.50;;;;;;;;2;256549860;256549860;-75
2023/08/24 15:52:21;;;;;;;;;10.00;10.00;;;;;;;;2;238377934;238377934;-73
2023/08/24 16:00:29;;;;;;;;;10.50;1.50;;;;;;;;2;257087267;257087267;-74
2023/08/24 16:09:05;;;;;;;;;3.00;3.00;;;;;;;;2;239448469;239448469;-74
2023/08/24 16:17:12;;;;;;;;;5.50;5.50;;;;;;;;2;257086554;257086554;-73
2023/08/24 16:25:47;;;;;;;;;7.00;7.00;;;;;;;;2;239357139;239357139;-73
2023/08/24 16:33:54;;;;;;;;;11.00;2.50;;;;;;;;2;257305023;257305023;-73
2023/08/24 16:42:29;;;;;;;;;5.00;2.50;;;;;;;;2;239813146;239813146;-72
2023/08/24 16:50:35;;;;;;;;;1.50;1.50;;;;;;;;2;257288469;257288469;-76
2023/08/24 16:59:10;;;;;;;;;5.50;5.50;;;;;;;;2;239748292;239748292;-73
2023/08/24 17:07:16;;;;;;;;;4.50;4.50;;;;;;;;2;256236329;256236329;-76
2023/08/24 17:15:50;;;;;;;;;2.00;2.00;;;;;;;;2;238501266;238501266;-75
2023/08/24 17:23:55;;;;;;;;;2.00;2.00;;;;;;;;2;256418008;256418008;-79
2023/08/24 17:32:29;;;;;;;;;4.50;4.50;;;;;;;;2;239034479;239034479;-82
2023/08/24 17:40:36;;;;;;;;;8.50;8.50;;;;;;;;2;256949203;256949203;-81
2023/08/24 17:49:10;;;;;;;;;8.00;8.00;;;;;;;;2;239862079;239862079;-79
2023/08/24 17:57:16;;;;;;;;;7.50;7.50;;;;;;;;2;255845187;255845187;-78
2023/08/24 18:05:51;;;;;;;;;5.50;5.50;;;;;;;;2;237756765;237756765;-80
2023/08/24 18:13:57;;;;;;;;;10.50;3.50;;;;;;;;2;255570900;255570900;-81
2023/08/24 18:22:28;;;;;;;;;5.00;5.00;;;;;;;;2;237503636;237503636;-79
2023/08/24 18:30:33;;;;;;;;;2.50;2.50;;;;;;;;2;255533331;255533331;-80
2023/08/24 18:39:08;;;;;;;;;6.00;4.50;;;;;;;;2;239920780;239920780;-81
2023/08/24 18:47:13;;;;;;;;;2.50;2.50;;;;;;;;2;255143115;255143115;-80
2023/08/24 18:55:42;;;;;;;;;4.50;4.50;;;;;;;;2;237861916;237861916;-80
2023/08/24 19:00:35;;;;;;;;;8.00;8.00;;;;;;;;2;252721685;252721685;-80
2023/08/24 19:08:02;;;;;;;;;6.00;6.00;;;;;;;;123219;30;184376060;-81
2023/08/24 19:15:51;;;;;;;;;2.50;2.50;;;;;;;;2;230041453;230041453;-79
2023/08/24 19:24:38;;;;;;;;;6.00;6.00;;;;;;;;2;272684983;272684983;-79
2023/08/24 19:32:27;;;;;;;;;9.50;1.50;;;;;;;;2;229342355;229342355;-80
2023/08/24 19:41:15;;;;;;;;;4.00;4.00;;;;;;;;2;272657277;272657277;-80
2023/08/24 19:49:04;;;;;;;;;6.00;6.00;;;;;;;;2;228714260;228714260;-73
2023/08/24 19:57:56;;;;;;;;;7.00;7.00;;;;;;;;2;275181003;275181003;-76
2023/08/24 20:05:43;;;;;;;;;6.50;6.50;;;;;;;;2;229436335;229436335;-75
2023/08/24 20:14:34;;;;;;;;;7.00;7.00;;;;;;;;2;274021849;274021849;-76
2023/08/24 20:22:22;;;;;;;;;4.50;4.50;;;;;;;;2;229607973;229607973;-77
2023/08/24 20:31:12;;;;;;;;;7.50;7.50;;;;;;;;2;272967406;272967406;-73
2023/08/24 20:39:01;;;;;;;;;3.00;3.00;;;;;;;;2;230315094;230315094;-74
2023/08/24 20:47:50;;;;;;;;;10.00;10.00;;;;;;;;2;274224518;274224518;-75
2023/08/24 20:55:39;;;;;;;;;17.00;5.50;;;;;;;;2;230739332;230739332;-74
2023/08/24 21:04:31;;;;;;;;;2.50;2.50;;;;;;;;2;273594816;273594816;-74
2023/08/24 21:12:16;;;;;;;;;6.50;6.50;;;;;;;;2;228475109;228475109;-73
2023/08/24 21:21:07;;;;;;;;;3.50;3.50;;;;;;;;2;274089679;274089679;-73
2023/08/24 21:28:55;;;;;;;;;10.50;10.50;;;;;;;;2;229985384;229985384;-77
2023/08/24 21:37:45;;;;;;;;;3.50;3.50;;;;;;;;2;272741523;272741523;-75
2023/08/24 21:45:33;;;;;;;;;3.50;3.50;;;;;;;;2;229943445;229943445;-76
2023/08/24 21:54:23;;;;;;;;;8.50;5.50;;;;;;;;2;273629624;273629624;-76
2023/08/24 22:02:10;;;;;;;;;4.00;4.00;;;;;;;;2;228604608;228604608;-74
2023/08/24 22:10:58;;;;;;;;;5.00;5.00;;;;;;;;2;272702916;272702916;-75
2023/08/24 22:18:45;;;;;;;;;6.50;6.50;;;;;;;;2;228056635;228056635;-72
2023/08/24 22:27:35;;;;;;;;;2.00;2.00;;;;;;;;2;273725662;273725662;-73
2023/08/24 22:35:23;;;;;;;;;5.50;5.50;;;;;;;;2;229500238;229500238;-73
2023/08/24 22:44:11;;;;;;;;;3.50;3.50;;;;;;;;2;272950975;272950975;-73
2023/08/24 22:51:57;;;;;;;;;4.50;4.50;;;;;;;;2;228972380;228972380;-73
2023/08/24 23:00:45;;;;;;;;;10.00;7.00;;;;;;;;2;271924896;271924896;-73
2023/08/24 23:08:30;;;;;;;;;4.50;4.50;;;;;;;;2;228815433;228815433;-72
2023/08/24 23:17:21;;;;;;;;;2.00;2.00;;;;;;;;2;273336330;273336330;-72
2023/08/24 23:25:08;;;;;;;;;8.00;8.00;;;;;;;;2;229806052;229806052;-72
2023/08/24 23:33:57;;;;;;;;;6.50;6.50;;;;;;;;2;273755343;273755343;-73
2023/08/24 23:41:43;;;;;;;;;4.00;4.00;;;;;;;;2;227440895;227440895;-73
2023/08/24 23:50:31;;;;;;;;;5.50;5.50;;;;;;;;2;272730051;272730051;-73
2023/08/24 23:58:18;;;;;;;;;3.50;3.50;;;;;;;;2;228626284;228626284;-73
